<?xml version="1.0" encoding="UTF-8" standalone="no" ?><gpx xmlns="http://www.topografix.com/GPX/1/1" xmlns:gpxx="http://www.garmin.com/xmlschemas/GpxExtensions/v3" xmlns:wptx1="http://www.garmin.com/xmlschemas/WaypointExtension/v1" xmlns:gpxtpx="http://www.garmin.com/xmlschemas/TrackPointExtension/v1" creator="GuideVTT.com" version="1.1" xmlns:xsi="http://www.w3.org/2001/XMLSchema-instance" xsi:schemaLocation="http://www.topografix.com/GPX/1/1 http://www.topografix.com/GPX/1/1/gpx.xsd http://www.garmin.com/xmlschemas/GpxExtensions/v3 http://www8.garmin.com/xmlschemas/GpxExtensionsv3.xsd http://www.garmin.com/xmlschemas/WaypointExtension/v1 http://www8.garmin.com/xmlschemas/WaypointExtensionv1.xsd http://www.garmin.com/xmlschemas/TrackPointExtension/v1 http://www.garmin.com/xmlschemas/TrackPointExtensionv1.xsd">
<metadata><link href="http://www.garmin.com"><text>Garmin International</text></link><time>2013-06-22T15:13:50Z</time></metadata>
<trk><name>rodez-agglomeration-circuit-11-le-muguet.gpx</name><extensions><gpxx:TrackExtension><gpxx:DisplayColor>Cyan</gpxx:DisplayColor></gpxx:TrackExtension></extensions><trkseg>
<trkpt lat="44.41068" lon="2.6043"><ele></ele><time>2020-7-30T3:2:26Z</time></trkpt>
<trkpt lat="44.4105" lon="2.60414"><ele></ele><time>2020-7-30T3:2:29Z</time></trkpt>
<trkpt lat="44.41031" lon="2.60403"><ele></ele><time>2020-7-30T3:2:32Z</time></trkpt>
<trkpt lat="44.41011" lon="2.60395"><ele></ele><time>2020-7-30T3:2:35Z</time></trkpt>
<trkpt lat="44.4101" lon="2.60378"><ele></ele><time>2020-7-30T3:2:38Z</time></trkpt>
<trkpt lat="44.41001" lon="2.60358"><ele></ele><time>2020-7-30T3:2:41Z</time></trkpt>
<trkpt lat="44.40999" lon="2.60348"><ele></ele><time>2020-7-30T3:2:44Z</time></trkpt>
<trkpt lat="44.41004" lon="2.60327"><ele></ele><time>2020-7-30T3:2:47Z</time></trkpt>
<trkpt lat="44.41013" lon="2.60308"><ele></ele><time>2020-7-30T3:2:50Z</time></trkpt>
<trkpt lat="44.41013" lon="2.60301"><ele></ele><time>2020-7-30T3:2:53Z</time></trkpt>
<trkpt lat="44.41026" lon="2.60268"><ele></ele><time>2020-7-30T3:2:56Z</time></trkpt>
<trkpt lat="44.4103" lon="2.60262"><ele></ele><time>2020-7-30T3:2:59Z</time></trkpt>
<trkpt lat="44.41046" lon="2.60257"><ele></ele><time>2020-7-30T3:3:2Z</time></trkpt>
<trkpt lat="44.4105" lon="2.60247"><ele></ele><time>2020-7-30T3:3:5Z</time></trkpt>
<trkpt lat="44.41056" lon="2.60249"><ele></ele><time>2020-7-30T3:3:8Z</time></trkpt>
<trkpt lat="44.41059" lon="2.60247"><ele></ele><time>2020-7-30T3:3:11Z</time></trkpt>
<trkpt lat="44.41063" lon="2.60238"><ele></ele><time>2020-7-30T3:3:14Z</time></trkpt>
<trkpt lat="44.41073" lon="2.60228"><ele></ele><time>2020-7-30T3:3:17Z</time></trkpt>
<trkpt lat="44.41067" lon="2.60201"><ele></ele><time>2020-7-30T3:3:20Z</time></trkpt>
<trkpt lat="44.4106" lon="2.60187"><ele></ele><time>2020-7-30T3:3:23Z</time></trkpt>
<trkpt lat="44.41048" lon="2.60179"><ele></ele><time>2020-7-30T3:3:26Z</time></trkpt>
<trkpt lat="44.41041" lon="2.60166"><ele></ele><time>2020-7-30T3:3:29Z</time></trkpt>
<trkpt lat="44.41039" lon="2.60134"><ele></ele><time>2020-7-30T3:3:32Z</time></trkpt>
<trkpt lat="44.41036" lon="2.60129"><ele></ele><time>2020-7-30T3:3:35Z</time></trkpt>
<trkpt lat="44.41032" lon="2.60107"><ele></ele><time>2020-7-30T3:3:38Z</time></trkpt>
<trkpt lat="44.40998" lon="2.60066"><ele></ele><time>2020-7-30T3:3:41Z</time></trkpt>
<trkpt lat="44.40961" lon="2.60035"><ele></ele><time>2020-7-30T3:3:44Z</time></trkpt>
<trkpt lat="44.40941" lon="2.60036"><ele></ele><time>2020-7-30T3:3:47Z</time></trkpt>
<trkpt lat="44.40896" lon="2.60053"><ele></ele><time>2020-7-30T3:3:50Z</time></trkpt>
<trkpt lat="44.40875" lon="2.60055"><ele></ele><time>2020-7-30T3:3:53Z</time></trkpt>
<trkpt lat="44.40853" lon="2.60053"><ele></ele><time>2020-7-30T3:3:56Z</time></trkpt>
<trkpt lat="44.40789" lon="2.60038"><ele></ele><time>2020-7-30T3:3:59Z</time></trkpt>
<trkpt lat="44.40766" lon="2.60043"><ele></ele><time>2020-7-30T3:4:2Z</time></trkpt>
<trkpt lat="44.40725" lon="2.60058"><ele></ele><time>2020-7-30T3:4:5Z</time></trkpt>
<trkpt lat="44.4069" lon="2.60066"><ele></ele><time>2020-7-30T3:4:8Z</time></trkpt>
<trkpt lat="44.40672" lon="2.60068"><ele></ele><time>2020-7-30T3:4:11Z</time></trkpt>
<trkpt lat="44.4066" lon="2.60065"><ele></ele><time>2020-7-30T3:4:14Z</time></trkpt>
<trkpt lat="44.40617" lon="2.60042"><ele></ele><time>2020-7-30T3:4:17Z</time></trkpt>
<trkpt lat="44.40604" lon="2.60024"><ele></ele><time>2020-7-30T3:4:20Z</time></trkpt>
<trkpt lat="44.40539" lon="2.59955"><ele></ele><time>2020-7-30T3:4:23Z</time></trkpt>
<trkpt lat="44.40516" lon="2.59925"><ele></ele><time>2020-7-30T3:4:26Z</time></trkpt>
<trkpt lat="44.40503" lon="2.59887"><ele></ele><time>2020-7-30T3:4:29Z</time></trkpt>
<trkpt lat="44.405" lon="2.59856"><ele></ele><time>2020-7-30T3:4:32Z</time></trkpt>
<trkpt lat="44.40471" lon="2.59769"><ele></ele><time>2020-7-30T3:4:35Z</time></trkpt>
<trkpt lat="44.4047" lon="2.59752"><ele></ele><time>2020-7-30T3:4:38Z</time></trkpt>
<trkpt lat="44.40485" lon="2.5972"><ele></ele><time>2020-7-30T3:4:41Z</time></trkpt>
<trkpt lat="44.40487" lon="2.59709"><ele></ele><time>2020-7-30T3:4:44Z</time></trkpt>
<trkpt lat="44.40484" lon="2.59659"><ele></ele><time>2020-7-30T3:4:47Z</time></trkpt>
<trkpt lat="44.40487" lon="2.59486"><ele></ele><time>2020-7-30T3:4:50Z</time></trkpt>
<trkpt lat="44.40501" lon="2.59356"><ele></ele><time>2020-7-30T3:4:53Z</time></trkpt>
<trkpt lat="44.40507" lon="2.59316"><ele></ele><time>2020-7-30T3:4:56Z</time></trkpt>
<trkpt lat="44.40523" lon="2.59257"><ele></ele><time>2020-7-30T3:4:59Z</time></trkpt>
<trkpt lat="44.40526" lon="2.59214"><ele></ele><time>2020-7-30T3:5:2Z</time></trkpt>
<trkpt lat="44.40518" lon="2.59178"><ele></ele><time>2020-7-30T3:5:5Z</time></trkpt>
<trkpt lat="44.40475" lon="2.59074"><ele></ele><time>2020-7-30T3:5:8Z</time></trkpt>
<trkpt lat="44.40387" lon="2.58806"><ele></ele><time>2020-7-30T3:5:11Z</time></trkpt>
<trkpt lat="44.40382" lon="2.58802"><ele></ele><time>2020-7-30T3:5:14Z</time></trkpt>
<trkpt lat="44.40372" lon="2.58805"><ele></ele><time>2020-7-30T3:5:17Z</time></trkpt>
<trkpt lat="44.4034" lon="2.58821"><ele></ele><time>2020-7-30T3:5:20Z</time></trkpt>
<trkpt lat="44.4033" lon="2.58818"><ele></ele><time>2020-7-30T3:5:23Z</time></trkpt>
<trkpt lat="44.40327" lon="2.58801"><ele></ele><time>2020-7-30T3:5:26Z</time></trkpt>
<trkpt lat="44.4033" lon="2.58783"><ele></ele><time>2020-7-30T3:5:29Z</time></trkpt>
<trkpt lat="44.40344" lon="2.58777"><ele></ele><time>2020-7-30T3:5:32Z</time></trkpt>
<trkpt lat="44.40371" lon="2.58777"><ele></ele><time>2020-7-30T3:5:35Z</time></trkpt>
<trkpt lat="44.40401" lon="2.5877"><ele></ele><time>2020-7-30T3:5:38Z</time></trkpt>
<trkpt lat="44.4043" lon="2.58755"><ele></ele><time>2020-7-30T3:5:41Z</time></trkpt>
<trkpt lat="44.40467" lon="2.58731"><ele></ele><time>2020-7-30T3:5:44Z</time></trkpt>
<trkpt lat="44.40503" lon="2.58701"><ele></ele><time>2020-7-30T3:5:47Z</time></trkpt>
<trkpt lat="44.40548" lon="2.58657"><ele></ele><time>2020-7-30T3:5:50Z</time></trkpt>
<trkpt lat="44.40602" lon="2.5858"><ele></ele><time>2020-7-30T3:5:53Z</time></trkpt>
<trkpt lat="44.40664" lon="2.585"><ele></ele><time>2020-7-30T3:5:56Z</time></trkpt>
<trkpt lat="44.40745" lon="2.58388"><ele></ele><time>2020-7-30T3:5:59Z</time></trkpt>
<trkpt lat="44.40831" lon="2.58262"><ele></ele><time>2020-7-30T3:6:2Z</time></trkpt>
<trkpt lat="44.40845" lon="2.58248"><ele></ele><time>2020-7-30T3:6:5Z</time></trkpt>
<trkpt lat="44.4099" lon="2.58051"><ele></ele><time>2020-7-30T3:6:8Z</time></trkpt>
<trkpt lat="44.41007" lon="2.58008"><ele></ele><time>2020-7-30T3:6:11Z</time></trkpt>
<trkpt lat="44.41026" lon="2.57978"><ele></ele><time>2020-7-30T3:6:14Z</time></trkpt>
<trkpt lat="44.41053" lon="2.57938"><ele></ele><time>2020-7-30T3:6:17Z</time></trkpt>
<trkpt lat="44.41078" lon="2.57911"><ele></ele><time>2020-7-30T3:6:20Z</time></trkpt>
<trkpt lat="44.41098" lon="2.57885"><ele></ele><time>2020-7-30T3:6:23Z</time></trkpt>
<trkpt lat="44.41163" lon="2.57794"><ele></ele><time>2020-7-30T3:6:26Z</time></trkpt>
<trkpt lat="44.41159" lon="2.57786"><ele></ele><time>2020-7-30T3:6:29Z</time></trkpt>
<trkpt lat="44.41145" lon="2.57771"><ele></ele><time>2020-7-30T3:6:32Z</time></trkpt>
<trkpt lat="44.41147" lon="2.57762"><ele></ele><time>2020-7-30T3:6:35Z</time></trkpt>
<trkpt lat="44.41138" lon="2.57708"><ele></ele><time>2020-7-30T3:6:38Z</time></trkpt>
<trkpt lat="44.41137" lon="2.57679"><ele></ele><time>2020-7-30T3:6:41Z</time></trkpt>
<trkpt lat="44.41162" lon="2.57642"><ele></ele><time>2020-7-30T3:6:44Z</time></trkpt>
<trkpt lat="44.41178" lon="2.57611"><ele></ele><time>2020-7-30T3:6:47Z</time></trkpt>
<trkpt lat="44.412" lon="2.5755"><ele></ele><time>2020-7-30T3:6:50Z</time></trkpt>
<trkpt lat="44.41207" lon="2.57526"><ele></ele><time>2020-7-30T3:6:53Z</time></trkpt>
<trkpt lat="44.41208" lon="2.57507"><ele></ele><time>2020-7-30T3:6:56Z</time></trkpt>
<trkpt lat="44.41243" lon="2.57341"><ele></ele><time>2020-7-30T3:6:59Z</time></trkpt>
<trkpt lat="44.41277" lon="2.57155"><ele></ele><time>2020-7-30T3:7:2Z</time></trkpt>
<trkpt lat="44.41281" lon="2.5714"><ele></ele><time>2020-7-30T3:7:5Z</time></trkpt>
<trkpt lat="44.41298" lon="2.57136"><ele></ele><time>2020-7-30T3:7:8Z</time></trkpt>
<trkpt lat="44.41308" lon="2.57111"><ele></ele><time>2020-7-30T3:7:11Z</time></trkpt>
<trkpt lat="44.41303" lon="2.57088"><ele></ele><time>2020-7-30T3:7:14Z</time></trkpt>
<trkpt lat="44.41306" lon="2.57059"><ele></ele><time>2020-7-30T3:7:17Z</time></trkpt>
<trkpt lat="44.41304" lon="2.57028"><ele></ele><time>2020-7-30T3:7:20Z</time></trkpt>
<trkpt lat="44.41306" lon="2.57005"><ele></ele><time>2020-7-30T3:7:23Z</time></trkpt>
<trkpt lat="44.41324" lon="2.56919"><ele></ele><time>2020-7-30T3:7:26Z</time></trkpt>
<trkpt lat="44.41328" lon="2.56859"><ele></ele><time>2020-7-30T3:7:29Z</time></trkpt>
<trkpt lat="44.41325" lon="2.56809"><ele></ele><time>2020-7-30T3:7:32Z</time></trkpt>
<trkpt lat="44.41322" lon="2.56794"><ele></ele><time>2020-7-30T3:7:35Z</time></trkpt>
<trkpt lat="44.41308" lon="2.56755"><ele></ele><time>2020-7-30T3:7:38Z</time></trkpt>
<trkpt lat="44.41302" lon="2.56708"><ele></ele><time>2020-7-30T3:7:41Z</time></trkpt>
<trkpt lat="44.41261" lon="2.56655"><ele></ele><time>2020-7-30T3:7:44Z</time></trkpt>
<trkpt lat="44.41262" lon="2.56637"><ele></ele><time>2020-7-30T3:7:47Z</time></trkpt>
<trkpt lat="44.41214" lon="2.56586"><ele></ele><time>2020-7-30T3:7:50Z</time></trkpt>
<trkpt lat="44.41189" lon="2.56564"><ele></ele><time>2020-7-30T3:7:53Z</time></trkpt>
<trkpt lat="44.41158" lon="2.5654"><ele></ele><time>2020-7-30T3:7:56Z</time></trkpt>
<trkpt lat="44.41108" lon="2.5651"><ele></ele><time>2020-7-30T3:7:59Z</time></trkpt>
<trkpt lat="44.40975" lon="2.56455"><ele></ele><time>2020-7-30T3:8:2Z</time></trkpt>
<trkpt lat="44.40953" lon="2.56433"><ele></ele><time>2020-7-30T3:8:5Z</time></trkpt>
<trkpt lat="44.40942" lon="2.56408"><ele></ele><time>2020-7-30T3:8:8Z</time></trkpt>
<trkpt lat="44.40916" lon="2.56238"><ele></ele><time>2020-7-30T3:8:11Z</time></trkpt>
<trkpt lat="44.40902" lon="2.56191"><ele></ele><time>2020-7-30T3:8:14Z</time></trkpt>
<trkpt lat="44.40869" lon="2.56126"><ele></ele><time>2020-7-30T3:8:17Z</time></trkpt>
<trkpt lat="44.40827" lon="2.56063"><ele></ele><time>2020-7-30T3:8:20Z</time></trkpt>
<trkpt lat="44.4061" lon="2.55812"><ele></ele><time>2020-7-30T3:8:23Z</time></trkpt>
<trkpt lat="44.40588" lon="2.55781"><ele></ele><time>2020-7-30T3:8:26Z</time></trkpt>
<trkpt lat="44.40563" lon="2.55738"><ele></ele><time>2020-7-30T3:8:29Z</time></trkpt>
<trkpt lat="44.40501" lon="2.55599"><ele></ele><time>2020-7-30T3:8:32Z</time></trkpt>
<trkpt lat="44.40488" lon="2.55578"><ele></ele><time>2020-7-30T3:8:35Z</time></trkpt>
<trkpt lat="44.40471" lon="2.55557"><ele></ele><time>2020-7-30T3:8:38Z</time></trkpt>
<trkpt lat="44.40411" lon="2.55497"><ele></ele><time>2020-7-30T3:8:41Z</time></trkpt>
<trkpt lat="44.40396" lon="2.55478"><ele></ele><time>2020-7-30T3:8:44Z</time></trkpt>
<trkpt lat="44.40378" lon="2.55439"><ele></ele><time>2020-7-30T3:8:47Z</time></trkpt>
<trkpt lat="44.40359" lon="2.55411"><ele></ele><time>2020-7-30T3:8:50Z</time></trkpt>
<trkpt lat="44.40333" lon="2.55386"><ele></ele><time>2020-7-30T3:8:53Z</time></trkpt>
<trkpt lat="44.40242" lon="2.55318"><ele></ele><time>2020-7-30T3:8:56Z</time></trkpt>
<trkpt lat="44.40178" lon="2.55259"><ele></ele><time>2020-7-30T3:8:59Z</time></trkpt>
<trkpt lat="44.40145" lon="2.55226"><ele></ele><time>2020-7-30T3:9:2Z</time></trkpt>
<trkpt lat="44.40115" lon="2.55189"><ele></ele><time>2020-7-30T3:9:5Z</time></trkpt>
<trkpt lat="44.40081" lon="2.55152"><ele></ele><time>2020-7-30T3:9:8Z</time></trkpt>
<trkpt lat="44.40025" lon="2.55101"><ele></ele><time>2020-7-30T3:9:11Z</time></trkpt>
<trkpt lat="44.39932" lon="2.55007"><ele></ele><time>2020-7-30T3:9:14Z</time></trkpt>
<trkpt lat="44.39848" lon="2.5494"><ele></ele><time>2020-7-30T3:9:17Z</time></trkpt>
<trkpt lat="44.3979" lon="2.54897"><ele></ele><time>2020-7-30T3:9:20Z</time></trkpt>
<trkpt lat="44.3974" lon="2.54864"><ele></ele><time>2020-7-30T3:9:23Z</time></trkpt>
<trkpt lat="44.39689" lon="2.54826"><ele></ele><time>2020-7-30T3:9:26Z</time></trkpt>
<trkpt lat="44.39599" lon="2.54767"><ele></ele><time>2020-7-30T3:9:29Z</time></trkpt>
<trkpt lat="44.39582" lon="2.54753"><ele></ele><time>2020-7-30T3:9:32Z</time></trkpt>
<trkpt lat="44.39533" lon="2.54693"><ele></ele><time>2020-7-30T3:9:35Z</time></trkpt>
<trkpt lat="44.3951" lon="2.54675"><ele></ele><time>2020-7-30T3:9:38Z</time></trkpt>
<trkpt lat="44.39488" lon="2.54669"><ele></ele><time>2020-7-30T3:9:41Z</time></trkpt>
<trkpt lat="44.39462" lon="2.54666"><ele></ele><time>2020-7-30T3:9:44Z</time></trkpt>
<trkpt lat="44.39432" lon="2.54656"><ele></ele><time>2020-7-30T3:9:47Z</time></trkpt>
<trkpt lat="44.39405" lon="2.54641"><ele></ele><time>2020-7-30T3:9:50Z</time></trkpt>
<trkpt lat="44.3938" lon="2.54593"><ele></ele><time>2020-7-30T3:9:53Z</time></trkpt>
<trkpt lat="44.39356" lon="2.54533"><ele></ele><time>2020-7-30T3:9:56Z</time></trkpt>
<trkpt lat="44.39328" lon="2.54434"><ele></ele><time>2020-7-30T3:9:59Z</time></trkpt>
<trkpt lat="44.39282" lon="2.54295"><ele></ele><time>2020-7-30T3:10:2Z</time></trkpt>
<trkpt lat="44.39248" lon="2.54197"><ele></ele><time>2020-7-30T3:10:5Z</time></trkpt>
<trkpt lat="44.3923" lon="2.54153"><ele></ele><time>2020-7-30T3:10:8Z</time></trkpt>
<trkpt lat="44.39206" lon="2.54113"><ele></ele><time>2020-7-30T3:10:11Z</time></trkpt>
<trkpt lat="44.39145" lon="2.54042"><ele></ele><time>2020-7-30T3:10:14Z</time></trkpt>
<trkpt lat="44.39134" lon="2.54032"><ele></ele><time>2020-7-30T3:10:17Z</time></trkpt>
<trkpt lat="44.39096" lon="2.54014"><ele></ele><time>2020-7-30T3:10:20Z</time></trkpt>
<trkpt lat="44.39089" lon="2.54004"><ele></ele><time>2020-7-30T3:10:23Z</time></trkpt>
<trkpt lat="44.39111" lon="2.53952"><ele></ele><time>2020-7-30T3:10:26Z</time></trkpt>
<trkpt lat="44.39114" lon="2.53924"><ele></ele><time>2020-7-30T3:10:29Z</time></trkpt>
<trkpt lat="44.39114" lon="2.53895"><ele></ele><time>2020-7-30T3:10:32Z</time></trkpt>
<trkpt lat="44.39107" lon="2.53875"><ele></ele><time>2020-7-30T3:10:35Z</time></trkpt>
<trkpt lat="44.39081" lon="2.53873"><ele></ele><time>2020-7-30T3:10:38Z</time></trkpt>
<trkpt lat="44.39075" lon="2.53863"><ele></ele><time>2020-7-30T3:10:41Z</time></trkpt>
<trkpt lat="44.3908" lon="2.53795"><ele></ele><time>2020-7-30T3:10:44Z</time></trkpt>
<trkpt lat="44.3909" lon="2.53779"><ele></ele><time>2020-7-30T3:10:47Z</time></trkpt>
<trkpt lat="44.39118" lon="2.53752"><ele></ele><time>2020-7-30T3:10:50Z</time></trkpt>
<trkpt lat="44.3912" lon="2.53736"><ele></ele><time>2020-7-30T3:10:53Z</time></trkpt>
<trkpt lat="44.39118" lon="2.53734"><ele></ele><time>2020-7-30T3:10:56Z</time></trkpt>
<trkpt lat="44.39117" lon="2.53736"><ele></ele><time>2020-7-30T3:10:59Z</time></trkpt>
<trkpt lat="44.39119" lon="2.53744"><ele></ele><time>2020-7-30T3:11:2Z</time></trkpt>
<trkpt lat="44.39132" lon="2.53722"><ele></ele><time>2020-7-30T3:11:5Z</time></trkpt>
<trkpt lat="44.39137" lon="2.53696"><ele></ele><time>2020-7-30T3:11:8Z</time></trkpt>
<trkpt lat="44.39134" lon="2.53685"><ele></ele><time>2020-7-30T3:11:11Z</time></trkpt>
<trkpt lat="44.39128" lon="2.53676"><ele></ele><time>2020-7-30T3:11:14Z</time></trkpt>
<trkpt lat="44.3913" lon="2.5367"><ele></ele><time>2020-7-30T3:11:17Z</time></trkpt>
<trkpt lat="44.39147" lon="2.53666"><ele></ele><time>2020-7-30T3:11:20Z</time></trkpt>
<trkpt lat="44.39186" lon="2.53637"><ele></ele><time>2020-7-30T3:11:23Z</time></trkpt>
<trkpt lat="44.39202" lon="2.53629"><ele></ele><time>2020-7-30T3:11:26Z</time></trkpt>
<trkpt lat="44.39234" lon="2.53625"><ele></ele><time>2020-7-30T3:11:29Z</time></trkpt>
<trkpt lat="44.39287" lon="2.53636"><ele></ele><time>2020-7-30T3:11:32Z</time></trkpt>
<trkpt lat="44.39291" lon="2.53634"><ele></ele><time>2020-7-30T3:11:35Z</time></trkpt>
<trkpt lat="44.39304" lon="2.53622"><ele></ele><time>2020-7-30T3:11:38Z</time></trkpt>
<trkpt lat="44.39334" lon="2.53583"><ele></ele><time>2020-7-30T3:11:41Z</time></trkpt>
<trkpt lat="44.39356" lon="2.5356"><ele></ele><time>2020-7-30T3:11:44Z</time></trkpt>
<trkpt lat="44.39411" lon="2.53511"><ele></ele><time>2020-7-30T3:11:47Z</time></trkpt>
<trkpt lat="44.39422" lon="2.53489"><ele></ele><time>2020-7-30T3:11:50Z</time></trkpt>
<trkpt lat="44.39413" lon="2.53443"><ele></ele><time>2020-7-30T3:11:53Z</time></trkpt>
<trkpt lat="44.39416" lon="2.53425"><ele></ele><time>2020-7-30T3:11:56Z</time></trkpt>
<trkpt lat="44.39503" lon="2.53218"><ele></ele><time>2020-7-30T3:11:59Z</time></trkpt>
<trkpt lat="44.39516" lon="2.53164"><ele></ele><time>2020-7-30T3:12:2Z</time></trkpt>
<trkpt lat="44.39527" lon="2.53142"><ele></ele><time>2020-7-30T3:12:5Z</time></trkpt>
<trkpt lat="44.39566" lon="2.53084"><ele></ele><time>2020-7-30T3:12:8Z</time></trkpt>
<trkpt lat="44.39599" lon="2.5305"><ele></ele><time>2020-7-30T3:12:11Z</time></trkpt>
<trkpt lat="44.39618" lon="2.53025"><ele></ele><time>2020-7-30T3:12:14Z</time></trkpt>
<trkpt lat="44.39669" lon="2.52948"><ele></ele><time>2020-7-30T3:12:17Z</time></trkpt>
<trkpt lat="44.39713" lon="2.52914"><ele></ele><time>2020-7-30T3:12:20Z</time></trkpt>
<trkpt lat="44.39724" lon="2.52902"><ele></ele><time>2020-7-30T3:12:23Z</time></trkpt>
<trkpt lat="44.39732" lon="2.52886"><ele></ele><time>2020-7-30T3:12:26Z</time></trkpt>
<trkpt lat="44.39741" lon="2.52857"><ele></ele><time>2020-7-30T3:12:29Z</time></trkpt>
<trkpt lat="44.39749" lon="2.52843"><ele></ele><time>2020-7-30T3:12:32Z</time></trkpt>
<trkpt lat="44.39806" lon="2.5276"><ele></ele><time>2020-7-30T3:12:35Z</time></trkpt>
<trkpt lat="44.39815" lon="2.52754"><ele></ele><time>2020-7-30T3:12:38Z</time></trkpt>
<trkpt lat="44.39835" lon="2.52734"><ele></ele><time>2020-7-30T3:12:41Z</time></trkpt>
<trkpt lat="44.39852" lon="2.5271"><ele></ele><time>2020-7-30T3:12:44Z</time></trkpt>
<trkpt lat="44.39886" lon="2.52672"><ele></ele><time>2020-7-30T3:12:47Z</time></trkpt>
<trkpt lat="44.39931" lon="2.52634"><ele></ele><time>2020-7-30T3:12:50Z</time></trkpt>
<trkpt lat="44.40007" lon="2.5255"><ele></ele><time>2020-7-30T3:12:53Z</time></trkpt>
<trkpt lat="44.40127" lon="2.52442"><ele></ele><time>2020-7-30T3:12:56Z</time></trkpt>
<trkpt lat="44.4016" lon="2.52403"><ele></ele><time>2020-7-30T3:12:59Z</time></trkpt>
<trkpt lat="44.4018" lon="2.52365"><ele></ele><time>2020-7-30T3:13:2Z</time></trkpt>
<trkpt lat="44.4023" lon="2.52257"><ele></ele><time>2020-7-30T3:13:5Z</time></trkpt>
<trkpt lat="44.40244" lon="2.52232"><ele></ele><time>2020-7-30T3:13:8Z</time></trkpt>
<trkpt lat="44.4027" lon="2.52196"><ele></ele><time>2020-7-30T3:13:11Z</time></trkpt>
<trkpt lat="44.40303" lon="2.52165"><ele></ele><time>2020-7-30T3:13:14Z</time></trkpt>
<trkpt lat="44.40347" lon="2.52133"><ele></ele><time>2020-7-30T3:13:17Z</time></trkpt>
<trkpt lat="44.40409" lon="2.52117"><ele></ele><time>2020-7-30T3:13:20Z</time></trkpt>
<trkpt lat="44.40429" lon="2.52106"><ele></ele><time>2020-7-30T3:13:23Z</time></trkpt>
<trkpt lat="44.40457" lon="2.52083"><ele></ele><time>2020-7-30T3:13:26Z</time></trkpt>
<trkpt lat="44.40507" lon="2.52058"><ele></ele><time>2020-7-30T3:13:29Z</time></trkpt>
<trkpt lat="44.40519" lon="2.52042"><ele></ele><time>2020-7-30T3:13:32Z</time></trkpt>
<trkpt lat="44.40538" lon="2.52009"><ele></ele><time>2020-7-30T3:13:35Z</time></trkpt>
<trkpt lat="44.40551" lon="2.5198"><ele></ele><time>2020-7-30T3:13:38Z</time></trkpt>
<trkpt lat="44.40565" lon="2.51962"><ele></ele><time>2020-7-30T3:13:41Z</time></trkpt>
<trkpt lat="44.40634" lon="2.51897"><ele></ele><time>2020-7-30T3:13:44Z</time></trkpt>
<trkpt lat="44.40669" lon="2.51859"><ele></ele><time>2020-7-30T3:13:47Z</time></trkpt>
<trkpt lat="44.40722" lon="2.51814"><ele></ele><time>2020-7-30T3:13:50Z</time></trkpt>
<trkpt lat="44.40764" lon="2.51783"><ele></ele><time>2020-7-30T3:13:53Z</time></trkpt>
<trkpt lat="44.4077" lon="2.5178"><ele></ele><time>2020-7-30T3:13:56Z</time></trkpt>
<trkpt lat="44.40781" lon="2.5178"><ele></ele><time>2020-7-30T3:13:59Z</time></trkpt>
<trkpt lat="44.40816" lon="2.51789"><ele></ele><time>2020-7-30T3:14:2Z</time></trkpt>
<trkpt lat="44.40825" lon="2.51789"><ele></ele><time>2020-7-30T3:14:5Z</time></trkpt>
<trkpt lat="44.40837" lon="2.51784"><ele></ele><time>2020-7-30T3:14:8Z</time></trkpt>
<trkpt lat="44.40863" lon="2.5177"><ele></ele><time>2020-7-30T3:14:11Z</time></trkpt>
<trkpt lat="44.4089" lon="2.5175"><ele></ele><time>2020-7-30T3:14:14Z</time></trkpt>
<trkpt lat="44.40964" lon="2.51692"><ele></ele><time>2020-7-30T3:14:17Z</time></trkpt>
<trkpt lat="44.40984" lon="2.51671"><ele></ele><time>2020-7-30T3:14:20Z</time></trkpt>
<trkpt lat="44.41003" lon="2.5166"><ele></ele><time>2020-7-30T3:14:23Z</time></trkpt>
<trkpt lat="44.4103" lon="2.51653"><ele></ele><time>2020-7-30T3:14:26Z</time></trkpt>
<trkpt lat="44.41044" lon="2.51652"><ele></ele><time>2020-7-30T3:14:29Z</time></trkpt>
<trkpt lat="44.41102" lon="2.51658"><ele></ele><time>2020-7-30T3:14:32Z</time></trkpt>
<trkpt lat="44.41112" lon="2.51653"><ele></ele><time>2020-7-30T3:14:35Z</time></trkpt>
<trkpt lat="44.41115" lon="2.51648"><ele></ele><time>2020-7-30T3:14:38Z</time></trkpt>
<trkpt lat="44.41121" lon="2.51645"><ele></ele><time>2020-7-30T3:14:41Z</time></trkpt>
<trkpt lat="44.41123" lon="2.51646"><ele></ele><time>2020-7-30T3:14:44Z</time></trkpt>
<trkpt lat="44.41125" lon="2.5166"><ele></ele><time>2020-7-30T3:14:47Z</time></trkpt>
<trkpt lat="44.4112" lon="2.51715"><ele></ele><time>2020-7-30T3:14:50Z</time></trkpt>
<trkpt lat="44.41106" lon="2.5182"><ele></ele><time>2020-7-30T3:14:53Z</time></trkpt>
<trkpt lat="44.41096" lon="2.51874"><ele></ele><time>2020-7-30T3:14:56Z</time></trkpt>
<trkpt lat="44.41099" lon="2.51882"><ele></ele><time>2020-7-30T3:14:59Z</time></trkpt>
<trkpt lat="44.41106" lon="2.51883"><ele></ele><time>2020-7-30T3:15:2Z</time></trkpt>
<trkpt lat="44.4112" lon="2.51872"><ele></ele><time>2020-7-30T3:15:5Z</time></trkpt>
<trkpt lat="44.41128" lon="2.51871"><ele></ele><time>2020-7-30T3:15:8Z</time></trkpt>
<trkpt lat="44.41144" lon="2.51878"><ele></ele><time>2020-7-30T3:15:11Z</time></trkpt>
<trkpt lat="44.41202" lon="2.51873"><ele></ele><time>2020-7-30T3:15:14Z</time></trkpt>
<trkpt lat="44.41235" lon="2.51864"><ele></ele><time>2020-7-30T3:15:17Z</time></trkpt>
<trkpt lat="44.4127" lon="2.51844"><ele></ele><time>2020-7-30T3:15:20Z</time></trkpt>
<trkpt lat="44.413" lon="2.51817"><ele></ele><time>2020-7-30T3:15:23Z</time></trkpt>
<trkpt lat="44.41343" lon="2.5179"><ele></ele><time>2020-7-30T3:15:26Z</time></trkpt>
<trkpt lat="44.41401" lon="2.51764"><ele></ele><time>2020-7-30T3:15:29Z</time></trkpt>
<trkpt lat="44.41443" lon="2.51751"><ele></ele><time>2020-7-30T3:15:32Z</time></trkpt>
<trkpt lat="44.41487" lon="2.5175"><ele></ele><time>2020-7-30T3:15:35Z</time></trkpt>
<trkpt lat="44.41521" lon="2.51742"><ele></ele><time>2020-7-30T3:15:38Z</time></trkpt>
<trkpt lat="44.41551" lon="2.51739"><ele></ele><time>2020-7-30T3:15:41Z</time></trkpt>
<trkpt lat="44.41573" lon="2.51739"><ele></ele><time>2020-7-30T3:15:44Z</time></trkpt>
<trkpt lat="44.41613" lon="2.51747"><ele></ele><time>2020-7-30T3:15:47Z</time></trkpt>
<trkpt lat="44.41632" lon="2.51748"><ele></ele><time>2020-7-30T3:15:50Z</time></trkpt>
<trkpt lat="44.41656" lon="2.51744"><ele></ele><time>2020-7-30T3:15:53Z</time></trkpt>
<trkpt lat="44.41694" lon="2.51732"><ele></ele><time>2020-7-30T3:15:56Z</time></trkpt>
<trkpt lat="44.41719" lon="2.5173"><ele></ele><time>2020-7-30T3:15:59Z</time></trkpt>
<trkpt lat="44.41778" lon="2.51734"><ele></ele><time>2020-7-30T3:16:2Z</time></trkpt>
<trkpt lat="44.41821" lon="2.51721"><ele></ele><time>2020-7-30T3:16:5Z</time></trkpt>
<trkpt lat="44.41863" lon="2.51699"><ele></ele><time>2020-7-30T3:16:8Z</time></trkpt>
<trkpt lat="44.41899" lon="2.51688"><ele></ele><time>2020-7-30T3:16:11Z</time></trkpt>
<trkpt lat="44.41932" lon="2.51683"><ele></ele><time>2020-7-30T3:16:14Z</time></trkpt>
<trkpt lat="44.4195" lon="2.51675"><ele></ele><time>2020-7-30T3:16:17Z</time></trkpt>
<trkpt lat="44.41992" lon="2.51669"><ele></ele><time>2020-7-30T3:16:20Z</time></trkpt>
<trkpt lat="44.42011" lon="2.51671"><ele></ele><time>2020-7-30T3:16:23Z</time></trkpt>
<trkpt lat="44.42021" lon="2.51669"><ele></ele><time>2020-7-30T3:16:26Z</time></trkpt>
<trkpt lat="44.42085" lon="2.51677"><ele></ele><time>2020-7-30T3:16:29Z</time></trkpt>
<trkpt lat="44.42111" lon="2.51675"><ele></ele><time>2020-7-30T3:16:32Z</time></trkpt>
<trkpt lat="44.42161" lon="2.5166"><ele></ele><time>2020-7-30T3:16:35Z</time></trkpt>
<trkpt lat="44.42185" lon="2.51646"><ele></ele><time>2020-7-30T3:16:38Z</time></trkpt>
<trkpt lat="44.422" lon="2.51647"><ele></ele><time>2020-7-30T3:16:41Z</time></trkpt>
<trkpt lat="44.42225" lon="2.51658"><ele></ele><time>2020-7-30T3:16:44Z</time></trkpt>
<trkpt lat="44.42245" lon="2.51674"><ele></ele><time>2020-7-30T3:16:47Z</time></trkpt>
<trkpt lat="44.42252" lon="2.51676"><ele></ele><time>2020-7-30T3:16:50Z</time></trkpt>
<trkpt lat="44.42274" lon="2.51677"><ele></ele><time>2020-7-30T3:16:53Z</time></trkpt>
<trkpt lat="44.42315" lon="2.51663"><ele></ele><time>2020-7-30T3:16:56Z</time></trkpt>
<trkpt lat="44.42333" lon="2.51664"><ele></ele><time>2020-7-30T3:16:59Z</time></trkpt>
<trkpt lat="44.42351" lon="2.51669"><ele></ele><time>2020-7-30T3:17:2Z</time></trkpt>
<trkpt lat="44.42367" lon="2.51679"><ele></ele><time>2020-7-30T3:17:5Z</time></trkpt>
<trkpt lat="44.42382" lon="2.51692"><ele></ele><time>2020-7-30T3:17:8Z</time></trkpt>
<trkpt lat="44.42391" lon="2.51696"><ele></ele><time>2020-7-30T3:17:11Z</time></trkpt>
<trkpt lat="44.42416" lon="2.51701"><ele></ele><time>2020-7-30T3:17:14Z</time></trkpt>
<trkpt lat="44.42454" lon="2.51702"><ele></ele><time>2020-7-30T3:17:17Z</time></trkpt>
<trkpt lat="44.42469" lon="2.51709"><ele></ele><time>2020-7-30T3:17:20Z</time></trkpt>
<trkpt lat="44.42482" lon="2.51719"><ele></ele><time>2020-7-30T3:17:23Z</time></trkpt>
<trkpt lat="44.42492" lon="2.51731"><ele></ele><time>2020-7-30T3:17:26Z</time></trkpt>
<trkpt lat="44.42489" lon="2.51778"><ele></ele><time>2020-7-30T3:17:29Z</time></trkpt>
<trkpt lat="44.42498" lon="2.51817"><ele></ele><time>2020-7-30T3:17:32Z</time></trkpt>
<trkpt lat="44.42496" lon="2.51836"><ele></ele><time>2020-7-30T3:17:35Z</time></trkpt>
<trkpt lat="44.42487" lon="2.5185"><ele></ele><time>2020-7-30T3:17:38Z</time></trkpt>
<trkpt lat="44.42482" lon="2.51866"><ele></ele><time>2020-7-30T3:17:41Z</time></trkpt>
<trkpt lat="44.42481" lon="2.51882"><ele></ele><time>2020-7-30T3:17:44Z</time></trkpt>
<trkpt lat="44.42484" lon="2.51891"><ele></ele><time>2020-7-30T3:17:47Z</time></trkpt>
<trkpt lat="44.42544" lon="2.51891"><ele></ele><time>2020-7-30T3:17:50Z</time></trkpt>
<trkpt lat="44.42548" lon="2.51894"><ele></ele><time>2020-7-30T3:17:53Z</time></trkpt>
<trkpt lat="44.42552" lon="2.51905"><ele></ele><time>2020-7-30T3:17:56Z</time></trkpt>
<trkpt lat="44.4255" lon="2.51918"><ele></ele><time>2020-7-30T3:17:59Z</time></trkpt>
<trkpt lat="44.42547" lon="2.51922"><ele></ele><time>2020-7-30T3:18:2Z</time></trkpt>
<trkpt lat="44.4251" lon="2.51937"><ele></ele><time>2020-7-30T3:18:5Z</time></trkpt>
<trkpt lat="44.42502" lon="2.51951"><ele></ele><time>2020-7-30T3:18:8Z</time></trkpt>
<trkpt lat="44.42505" lon="2.51966"><ele></ele><time>2020-7-30T3:18:11Z</time></trkpt>
<trkpt lat="44.42511" lon="2.5198"><ele></ele><time>2020-7-30T3:18:14Z</time></trkpt>
<trkpt lat="44.42523" lon="2.51994"><ele></ele><time>2020-7-30T3:18:17Z</time></trkpt>
<trkpt lat="44.42531" lon="2.51983"><ele></ele><time>2020-7-30T3:18:20Z</time></trkpt>
<trkpt lat="44.4254" lon="2.51977"><ele></ele><time>2020-7-30T3:18:23Z</time></trkpt>
<trkpt lat="44.42571" lon="2.51987"><ele></ele><time>2020-7-30T3:18:26Z</time></trkpt>
<trkpt lat="44.42578" lon="2.51946"><ele></ele><time>2020-7-30T3:18:29Z</time></trkpt>
<trkpt lat="44.42588" lon="2.51938"><ele></ele><time>2020-7-30T3:18:32Z</time></trkpt>
<trkpt lat="44.42608" lon="2.51936"><ele></ele><time>2020-7-30T3:18:35Z</time></trkpt>
<trkpt lat="44.42635" lon="2.51925"><ele></ele><time>2020-7-30T3:18:38Z</time></trkpt>
<trkpt lat="44.42657" lon="2.51922"><ele></ele><time>2020-7-30T3:18:41Z</time></trkpt>
<trkpt lat="44.42668" lon="2.51912"><ele></ele><time>2020-7-30T3:18:44Z</time></trkpt>
<trkpt lat="44.42679" lon="2.51889"><ele></ele><time>2020-7-30T3:18:47Z</time></trkpt>
<trkpt lat="44.42696" lon="2.51864"><ele></ele><time>2020-7-30T3:18:50Z</time></trkpt>
<trkpt lat="44.42709" lon="2.51852"><ele></ele><time>2020-7-30T3:18:53Z</time></trkpt>
<trkpt lat="44.42734" lon="2.5184"><ele></ele><time>2020-7-30T3:18:56Z</time></trkpt>
<trkpt lat="44.42747" lon="2.51802"><ele></ele><time>2020-7-30T3:18:59Z</time></trkpt>
<trkpt lat="44.42756" lon="2.51783"><ele></ele><time>2020-7-30T3:19:2Z</time></trkpt>
<trkpt lat="44.4278" lon="2.51747"><ele></ele><time>2020-7-30T3:19:5Z</time></trkpt>
<trkpt lat="44.42814" lon="2.51681"><ele></ele><time>2020-7-30T3:19:8Z</time></trkpt>
<trkpt lat="44.42826" lon="2.51648"><ele></ele><time>2020-7-30T3:19:11Z</time></trkpt>
<trkpt lat="44.42834" lon="2.51615"><ele></ele><time>2020-7-30T3:19:14Z</time></trkpt>
<trkpt lat="44.42843" lon="2.51596"><ele></ele><time>2020-7-30T3:19:17Z</time></trkpt>
<trkpt lat="44.4285" lon="2.51572"><ele></ele><time>2020-7-30T3:19:20Z</time></trkpt>
<trkpt lat="44.42854" lon="2.51575"><ele></ele><time>2020-7-30T3:19:23Z</time></trkpt>
<trkpt lat="44.42875" lon="2.51562"><ele></ele><time>2020-7-30T3:19:26Z</time></trkpt>
<trkpt lat="44.42885" lon="2.5155"><ele></ele><time>2020-7-30T3:19:29Z</time></trkpt>
<trkpt lat="44.42907" lon="2.51509"><ele></ele><time>2020-7-30T3:19:32Z</time></trkpt>
<trkpt lat="44.4291" lon="2.515"><ele></ele><time>2020-7-30T3:19:35Z</time></trkpt>
<trkpt lat="44.42911" lon="2.51474"><ele></ele><time>2020-7-30T3:19:38Z</time></trkpt>
<trkpt lat="44.42916" lon="2.51458"><ele></ele><time>2020-7-30T3:19:41Z</time></trkpt>
<trkpt lat="44.42918" lon="2.51427"><ele></ele><time>2020-7-30T3:19:44Z</time></trkpt>
<trkpt lat="44.42939" lon="2.51378"><ele></ele><time>2020-7-30T3:19:47Z</time></trkpt>
<trkpt lat="44.42948" lon="2.51315"><ele></ele><time>2020-7-30T3:19:50Z</time></trkpt>
<trkpt lat="44.42971" lon="2.51287"><ele></ele><time>2020-7-30T3:19:53Z</time></trkpt>
<trkpt lat="44.42996" lon="2.51265"><ele></ele><time>2020-7-30T3:19:56Z</time></trkpt>
<trkpt lat="44.43" lon="2.51249"><ele></ele><time>2020-7-30T3:19:59Z</time></trkpt>
<trkpt lat="44.42994" lon="2.51228"><ele></ele><time>2020-7-30T3:20:2Z</time></trkpt>
<trkpt lat="44.42983" lon="2.51204"><ele></ele><time>2020-7-30T3:20:5Z</time></trkpt>
<trkpt lat="44.42984" lon="2.51195"><ele></ele><time>2020-7-30T3:20:8Z</time></trkpt>
<trkpt lat="44.42988" lon="2.51187"><ele></ele><time>2020-7-30T3:20:11Z</time></trkpt>
<trkpt lat="44.43007" lon="2.5117"><ele></ele><time>2020-7-30T3:20:14Z</time></trkpt>
<trkpt lat="44.43014" lon="2.51153"><ele></ele><time>2020-7-30T3:20:17Z</time></trkpt>
<trkpt lat="44.43027" lon="2.5114"><ele></ele><time>2020-7-30T3:20:20Z</time></trkpt>
<trkpt lat="44.43032" lon="2.51137"><ele></ele><time>2020-7-30T3:20:23Z</time></trkpt>
<trkpt lat="44.43046" lon="2.51135"><ele></ele><time>2020-7-30T3:20:26Z</time></trkpt>
<trkpt lat="44.43067" lon="2.51118"><ele></ele><time>2020-7-30T3:20:29Z</time></trkpt>
<trkpt lat="44.43074" lon="2.51149"><ele></ele><time>2020-7-30T3:20:32Z</time></trkpt>
<trkpt lat="44.43066" lon="2.51173"><ele></ele><time>2020-7-30T3:20:35Z</time></trkpt>
<trkpt lat="44.43043" lon="2.512"><ele></ele><time>2020-7-30T3:20:38Z</time></trkpt>
<trkpt lat="44.43037" lon="2.51223"><ele></ele><time>2020-7-30T3:20:41Z</time></trkpt>
<trkpt lat="44.43038" lon="2.51302"><ele></ele><time>2020-7-30T3:20:44Z</time></trkpt>
<trkpt lat="44.43031" lon="2.51337"><ele></ele><time>2020-7-30T3:20:47Z</time></trkpt>
<trkpt lat="44.42987" lon="2.51432"><ele></ele><time>2020-7-30T3:20:50Z</time></trkpt>
<trkpt lat="44.42991" lon="2.51441"><ele></ele><time>2020-7-30T3:20:53Z</time></trkpt>
<trkpt lat="44.42998" lon="2.51443"><ele></ele><time>2020-7-30T3:20:56Z</time></trkpt>
<trkpt lat="44.4301" lon="2.51439"><ele></ele><time>2020-7-30T3:20:59Z</time></trkpt>
<trkpt lat="44.43027" lon="2.51429"><ele></ele><time>2020-7-30T3:21:2Z</time></trkpt>
<trkpt lat="44.43033" lon="2.51429"><ele></ele><time>2020-7-30T3:21:5Z</time></trkpt>
<trkpt lat="44.4306" lon="2.51418"><ele></ele><time>2020-7-30T3:21:8Z</time></trkpt>
<trkpt lat="44.43115" lon="2.51403"><ele></ele><time>2020-7-30T3:21:11Z</time></trkpt>
<trkpt lat="44.43129" lon="2.51393"><ele></ele><time>2020-7-30T3:21:14Z</time></trkpt>
<trkpt lat="44.43139" lon="2.51382"><ele></ele><time>2020-7-30T3:21:17Z</time></trkpt>
<trkpt lat="44.43173" lon="2.51332"><ele></ele><time>2020-7-30T3:21:20Z</time></trkpt>
<trkpt lat="44.43188" lon="2.51317"><ele></ele><time>2020-7-30T3:21:23Z</time></trkpt>
<trkpt lat="44.43205" lon="2.51268"><ele></ele><time>2020-7-30T3:21:26Z</time></trkpt>
<trkpt lat="44.43231" lon="2.51229"><ele></ele><time>2020-7-30T3:21:29Z</time></trkpt>
<trkpt lat="44.43258" lon="2.51159"><ele></ele><time>2020-7-30T3:21:32Z</time></trkpt>
<trkpt lat="44.43268" lon="2.51153"><ele></ele><time>2020-7-30T3:21:35Z</time></trkpt>
<trkpt lat="44.43274" lon="2.51151"><ele></ele><time>2020-7-30T3:21:38Z</time></trkpt>
<trkpt lat="44.43284" lon="2.51154"><ele></ele><time>2020-7-30T3:21:41Z</time></trkpt>
<trkpt lat="44.43298" lon="2.51167"><ele></ele><time>2020-7-30T3:21:44Z</time></trkpt>
<trkpt lat="44.43308" lon="2.51171"><ele></ele><time>2020-7-30T3:21:47Z</time></trkpt>
<trkpt lat="44.43314" lon="2.51178"><ele></ele><time>2020-7-30T3:21:50Z</time></trkpt>
<trkpt lat="44.43318" lon="2.51212"><ele></ele><time>2020-7-30T3:21:53Z</time></trkpt>
<trkpt lat="44.43324" lon="2.51228"><ele></ele><time>2020-7-30T3:21:56Z</time></trkpt>
<trkpt lat="44.43331" lon="2.51236"><ele></ele><time>2020-7-30T3:21:59Z</time></trkpt>
<trkpt lat="44.43343" lon="2.51259"><ele></ele><time>2020-7-30T3:22:2Z</time></trkpt>
<trkpt lat="44.43347" lon="2.51289"><ele></ele><time>2020-7-30T3:22:5Z</time></trkpt>
<trkpt lat="44.43351" lon="2.51297"><ele></ele><time>2020-7-30T3:22:8Z</time></trkpt>
<trkpt lat="44.43356" lon="2.51297"><ele></ele><time>2020-7-30T3:22:11Z</time></trkpt>
<trkpt lat="44.43371" lon="2.51288"><ele></ele><time>2020-7-30T3:22:14Z</time></trkpt>
<trkpt lat="44.43378" lon="2.51278"><ele></ele><time>2020-7-30T3:22:17Z</time></trkpt>
<trkpt lat="44.43386" lon="2.51274"><ele></ele><time>2020-7-30T3:22:20Z</time></trkpt>
<trkpt lat="44.43398" lon="2.51274"><ele></ele><time>2020-7-30T3:22:23Z</time></trkpt>
<trkpt lat="44.43408" lon="2.51285"><ele></ele><time>2020-7-30T3:22:26Z</time></trkpt>
<trkpt lat="44.43415" lon="2.51289"><ele></ele><time>2020-7-30T3:22:29Z</time></trkpt>
<trkpt lat="44.43433" lon="2.51256"><ele></ele><time>2020-7-30T3:22:32Z</time></trkpt>
<trkpt lat="44.4346" lon="2.51222"><ele></ele><time>2020-7-30T3:22:35Z</time></trkpt>
<trkpt lat="44.43475" lon="2.51224"><ele></ele><time>2020-7-30T3:22:38Z</time></trkpt>
<trkpt lat="44.43493" lon="2.51202"><ele></ele><time>2020-7-30T3:22:41Z</time></trkpt>
<trkpt lat="44.43506" lon="2.51196"><ele></ele><time>2020-7-30T3:22:44Z</time></trkpt>
<trkpt lat="44.43511" lon="2.51196"><ele></ele><time>2020-7-30T3:22:47Z</time></trkpt>
<trkpt lat="44.4352" lon="2.51201"><ele></ele><time>2020-7-30T3:22:50Z</time></trkpt>
<trkpt lat="44.43521" lon="2.51237"><ele></ele><time>2020-7-30T3:22:53Z</time></trkpt>
<trkpt lat="44.43523" lon="2.51242"><ele></ele><time>2020-7-30T3:22:56Z</time></trkpt>
<trkpt lat="44.43542" lon="2.51251"><ele></ele><time>2020-7-30T3:22:59Z</time></trkpt>
<trkpt lat="44.43548" lon="2.51263"><ele></ele><time>2020-7-30T3:23:2Z</time></trkpt>
<trkpt lat="44.43579" lon="2.51247"><ele></ele><time>2020-7-30T3:23:5Z</time></trkpt>
<trkpt lat="44.43624" lon="2.51218"><ele></ele><time>2020-7-30T3:23:8Z</time></trkpt>
<trkpt lat="44.4363" lon="2.51211"><ele></ele><time>2020-7-30T3:23:11Z</time></trkpt>
<trkpt lat="44.4365" lon="2.51172"><ele></ele><time>2020-7-30T3:23:14Z</time></trkpt>
<trkpt lat="44.43654" lon="2.5117"><ele></ele><time>2020-7-30T3:23:17Z</time></trkpt>
<trkpt lat="44.43665" lon="2.51178"><ele></ele><time>2020-7-30T3:23:20Z</time></trkpt>
<trkpt lat="44.43674" lon="2.51177"><ele></ele><time>2020-7-30T3:23:23Z</time></trkpt>
<trkpt lat="44.43706" lon="2.51164"><ele></ele><time>2020-7-30T3:23:26Z</time></trkpt>
<trkpt lat="44.43733" lon="2.51144"><ele></ele><time>2020-7-30T3:23:29Z</time></trkpt>
<trkpt lat="44.43738" lon="2.51127"><ele></ele><time>2020-7-30T3:23:32Z</time></trkpt>
<trkpt lat="44.43743" lon="2.51053"><ele></ele><time>2020-7-30T3:23:35Z</time></trkpt>
<trkpt lat="44.43741" lon="2.51029"><ele></ele><time>2020-7-30T3:23:38Z</time></trkpt>
<trkpt lat="44.43747" lon="2.51032"><ele></ele><time>2020-7-30T3:23:41Z</time></trkpt>
<trkpt lat="44.4375" lon="2.51043"><ele></ele><time>2020-7-30T3:23:44Z</time></trkpt>
<trkpt lat="44.43749" lon="2.5108"><ele></ele><time>2020-7-30T3:23:47Z</time></trkpt>
<trkpt lat="44.43753" lon="2.51121"><ele></ele><time>2020-7-30T3:23:50Z</time></trkpt>
<trkpt lat="44.43748" lon="2.51168"><ele></ele><time>2020-7-30T3:23:53Z</time></trkpt>
<trkpt lat="44.4369" lon="2.51318"><ele></ele><time>2020-7-30T3:23:56Z</time></trkpt>
<trkpt lat="44.43669" lon="2.51395"><ele></ele><time>2020-7-30T3:23:59Z</time></trkpt>
<trkpt lat="44.43662" lon="2.51414"><ele></ele><time>2020-7-30T3:24:2Z</time></trkpt>
<trkpt lat="44.43648" lon="2.51431"><ele></ele><time>2020-7-30T3:24:5Z</time></trkpt>
<trkpt lat="44.43588" lon="2.51462"><ele></ele><time>2020-7-30T3:24:8Z</time></trkpt>
<trkpt lat="44.43578" lon="2.51477"><ele></ele><time>2020-7-30T3:24:11Z</time></trkpt>
<trkpt lat="44.43614" lon="2.51473"><ele></ele><time>2020-7-30T3:24:14Z</time></trkpt>
<trkpt lat="44.43649" lon="2.51477"><ele></ele><time>2020-7-30T3:24:17Z</time></trkpt>
<trkpt lat="44.43673" lon="2.51476"><ele></ele><time>2020-7-30T3:24:20Z</time></trkpt>
<trkpt lat="44.43685" lon="2.51469"><ele></ele><time>2020-7-30T3:24:23Z</time></trkpt>
<trkpt lat="44.43701" lon="2.51448"><ele></ele><time>2020-7-30T3:24:26Z</time></trkpt>
<trkpt lat="44.43708" lon="2.51449"><ele></ele><time>2020-7-30T3:24:29Z</time></trkpt>
<trkpt lat="44.43713" lon="2.51434"><ele></ele><time>2020-7-30T3:24:32Z</time></trkpt>
<trkpt lat="44.43733" lon="2.51399"><ele></ele><time>2020-7-30T3:24:35Z</time></trkpt>
<trkpt lat="44.43769" lon="2.51351"><ele></ele><time>2020-7-30T3:24:38Z</time></trkpt>
<trkpt lat="44.43775" lon="2.51344"><ele></ele><time>2020-7-30T3:24:41Z</time></trkpt>
<trkpt lat="44.43803" lon="2.51328"><ele></ele><time>2020-7-30T3:24:44Z</time></trkpt>
<trkpt lat="44.43806" lon="2.51323"><ele></ele><time>2020-7-30T3:24:47Z</time></trkpt>
<trkpt lat="44.43813" lon="2.51303"><ele></ele><time>2020-7-30T3:24:50Z</time></trkpt>
<trkpt lat="44.43817" lon="2.51277"><ele></ele><time>2020-7-30T3:24:53Z</time></trkpt>
<trkpt lat="44.43831" lon="2.51222"><ele></ele><time>2020-7-30T3:24:56Z</time></trkpt>
<trkpt lat="44.43835" lon="2.51217"><ele></ele><time>2020-7-30T3:24:59Z</time></trkpt>
<trkpt lat="44.43838" lon="2.51219"><ele></ele><time>2020-7-30T3:25:2Z</time></trkpt>
<trkpt lat="44.43834" lon="2.51244"><ele></ele><time>2020-7-30T3:25:5Z</time></trkpt>
<trkpt lat="44.43834" lon="2.51297"><ele></ele><time>2020-7-30T3:25:8Z</time></trkpt>
<trkpt lat="44.4383" lon="2.51338"><ele></ele><time>2020-7-30T3:25:11Z</time></trkpt>
<trkpt lat="44.43831" lon="2.51364"><ele></ele><time>2020-7-30T3:25:14Z</time></trkpt>
<trkpt lat="44.43828" lon="2.51405"><ele></ele><time>2020-7-30T3:25:17Z</time></trkpt>
<trkpt lat="44.43819" lon="2.51434"><ele></ele><time>2020-7-30T3:25:20Z</time></trkpt>
<trkpt lat="44.43814" lon="2.51445"><ele></ele><time>2020-7-30T3:25:23Z</time></trkpt>
<trkpt lat="44.43781" lon="2.51474"><ele></ele><time>2020-7-30T3:25:26Z</time></trkpt>
<trkpt lat="44.43754" lon="2.51496"><ele></ele><time>2020-7-30T3:25:29Z</time></trkpt>
<trkpt lat="44.43738" lon="2.515"><ele></ele><time>2020-7-30T3:25:32Z</time></trkpt>
<trkpt lat="44.43691" lon="2.5154"><ele></ele><time>2020-7-30T3:25:35Z</time></trkpt>
<trkpt lat="44.4368" lon="2.51557"><ele></ele><time>2020-7-30T3:25:38Z</time></trkpt>
<trkpt lat="44.43679" lon="2.51573"><ele></ele><time>2020-7-30T3:25:41Z</time></trkpt>
<trkpt lat="44.43709" lon="2.51634"><ele></ele><time>2020-7-30T3:25:44Z</time></trkpt>
<trkpt lat="44.43719" lon="2.51706"><ele></ele><time>2020-7-30T3:25:47Z</time></trkpt>
<trkpt lat="44.43723" lon="2.51757"><ele></ele><time>2020-7-30T3:25:50Z</time></trkpt>
<trkpt lat="44.4373" lon="2.5177"><ele></ele><time>2020-7-30T3:25:53Z</time></trkpt>
<trkpt lat="44.4374" lon="2.51778"><ele></ele><time>2020-7-30T3:25:56Z</time></trkpt>
<trkpt lat="44.43777" lon="2.5179"><ele></ele><time>2020-7-30T3:25:59Z</time></trkpt>
<trkpt lat="44.43785" lon="2.51795"><ele></ele><time>2020-7-30T3:26:2Z</time></trkpt>
<trkpt lat="44.43804" lon="2.51821"><ele></ele><time>2020-7-30T3:26:5Z</time></trkpt>
<trkpt lat="44.43813" lon="2.51826"><ele></ele><time>2020-7-30T3:26:8Z</time></trkpt>
<trkpt lat="44.43825" lon="2.51826"><ele></ele><time>2020-7-30T3:26:11Z</time></trkpt>
<trkpt lat="44.4385" lon="2.51812"><ele></ele><time>2020-7-30T3:26:14Z</time></trkpt>
<trkpt lat="44.43864" lon="2.51801"><ele></ele><time>2020-7-30T3:26:17Z</time></trkpt>
<trkpt lat="44.43879" lon="2.51782"><ele></ele><time>2020-7-30T3:26:20Z</time></trkpt>
<trkpt lat="44.43884" lon="2.51761"><ele></ele><time>2020-7-30T3:26:23Z</time></trkpt>
<trkpt lat="44.43884" lon="2.51711"><ele></ele><time>2020-7-30T3:26:26Z</time></trkpt>
<trkpt lat="44.4388" lon="2.51673"><ele></ele><time>2020-7-30T3:26:29Z</time></trkpt>
<trkpt lat="44.43876" lon="2.51656"><ele></ele><time>2020-7-30T3:26:32Z</time></trkpt>
<trkpt lat="44.43877" lon="2.51647"><ele></ele><time>2020-7-30T3:26:35Z</time></trkpt>
<trkpt lat="44.43879" lon="2.51647"><ele></ele><time>2020-7-30T3:26:38Z</time></trkpt>
<trkpt lat="44.43886" lon="2.51675"><ele></ele><time>2020-7-30T3:26:41Z</time></trkpt>
<trkpt lat="44.43889" lon="2.51708"><ele></ele><time>2020-7-30T3:26:44Z</time></trkpt>
<trkpt lat="44.439" lon="2.51766"><ele></ele><time>2020-7-30T3:26:47Z</time></trkpt>
<trkpt lat="44.43891" lon="2.51816"><ele></ele><time>2020-7-30T3:26:50Z</time></trkpt>
<trkpt lat="44.43869" lon="2.51848"><ele></ele><time>2020-7-30T3:26:53Z</time></trkpt>
<trkpt lat="44.43859" lon="2.51857"><ele></ele><time>2020-7-30T3:26:56Z</time></trkpt>
<trkpt lat="44.43856" lon="2.51863"><ele></ele><time>2020-7-30T3:26:59Z</time></trkpt>
<trkpt lat="44.43859" lon="2.51873"><ele></ele><time>2020-7-30T3:27:2Z</time></trkpt>
<trkpt lat="44.43869" lon="2.51865"><ele></ele><time>2020-7-30T3:27:5Z</time></trkpt>
<trkpt lat="44.43884" lon="2.51841"><ele></ele><time>2020-7-30T3:27:8Z</time></trkpt>
<trkpt lat="44.439" lon="2.51825"><ele></ele><time>2020-7-30T3:27:11Z</time></trkpt>
<trkpt lat="44.43905" lon="2.51814"><ele></ele><time>2020-7-30T3:27:14Z</time></trkpt>
<trkpt lat="44.43914" lon="2.51777"><ele></ele><time>2020-7-30T3:27:17Z</time></trkpt>
<trkpt lat="44.43905" lon="2.51702"><ele></ele><time>2020-7-30T3:27:20Z</time></trkpt>
<trkpt lat="44.4391" lon="2.51684"><ele></ele><time>2020-7-30T3:27:23Z</time></trkpt>
<trkpt lat="44.4392" lon="2.51671"><ele></ele><time>2020-7-30T3:27:26Z</time></trkpt>
<trkpt lat="44.43928" lon="2.51681"><ele></ele><time>2020-7-30T3:27:29Z</time></trkpt>
<trkpt lat="44.43924" lon="2.51693"><ele></ele><time>2020-7-30T3:27:32Z</time></trkpt>
<trkpt lat="44.43921" lon="2.51716"><ele></ele><time>2020-7-30T3:27:35Z</time></trkpt>
<trkpt lat="44.43922" lon="2.5173"><ele></ele><time>2020-7-30T3:27:38Z</time></trkpt>
<trkpt lat="44.43927" lon="2.51745"><ele></ele><time>2020-7-30T3:27:41Z</time></trkpt>
<trkpt lat="44.4393" lon="2.51781"><ele></ele><time>2020-7-30T3:27:44Z</time></trkpt>
<trkpt lat="44.43927" lon="2.5181"><ele></ele><time>2020-7-30T3:27:47Z</time></trkpt>
<trkpt lat="44.43912" lon="2.51839"><ele></ele><time>2020-7-30T3:27:50Z</time></trkpt>
<trkpt lat="44.43896" lon="2.51862"><ele></ele><time>2020-7-30T3:27:53Z</time></trkpt>
<trkpt lat="44.43876" lon="2.51885"><ele></ele><time>2020-7-30T3:27:56Z</time></trkpt>
<trkpt lat="44.43851" lon="2.51895"><ele></ele><time>2020-7-30T3:27:59Z</time></trkpt>
<trkpt lat="44.43832" lon="2.51909"><ele></ele><time>2020-7-30T3:28:2Z</time></trkpt>
<trkpt lat="44.43734" lon="2.52055"><ele></ele><time>2020-7-30T3:28:5Z</time></trkpt>
<trkpt lat="44.43648" lon="2.52132"><ele></ele><time>2020-7-30T3:28:8Z</time></trkpt>
<trkpt lat="44.43632" lon="2.52151"><ele></ele><time>2020-7-30T3:28:11Z</time></trkpt>
<trkpt lat="44.43621" lon="2.52172"><ele></ele><time>2020-7-30T3:28:14Z</time></trkpt>
<trkpt lat="44.43605" lon="2.52193"><ele></ele><time>2020-7-30T3:28:17Z</time></trkpt>
<trkpt lat="44.43594" lon="2.52212"><ele></ele><time>2020-7-30T3:28:20Z</time></trkpt>
<trkpt lat="44.4358" lon="2.52247"><ele></ele><time>2020-7-30T3:28:23Z</time></trkpt>
<trkpt lat="44.43545" lon="2.5231"><ele></ele><time>2020-7-30T3:28:26Z</time></trkpt>
<trkpt lat="44.43515" lon="2.52403"><ele></ele><time>2020-7-30T3:28:29Z</time></trkpt>
<trkpt lat="44.43506" lon="2.52423"><ele></ele><time>2020-7-30T3:28:32Z</time></trkpt>
<trkpt lat="44.43501" lon="2.52443"><ele></ele><time>2020-7-30T3:28:35Z</time></trkpt>
<trkpt lat="44.435" lon="2.52479"><ele></ele><time>2020-7-30T3:28:38Z</time></trkpt>
<trkpt lat="44.43486" lon="2.52566"><ele></ele><time>2020-7-30T3:28:41Z</time></trkpt>
<trkpt lat="44.43472" lon="2.52593"><ele></ele><time>2020-7-30T3:28:44Z</time></trkpt>
<trkpt lat="44.43456" lon="2.52614"><ele></ele><time>2020-7-30T3:28:47Z</time></trkpt>
<trkpt lat="44.43435" lon="2.52668"><ele></ele><time>2020-7-30T3:28:50Z</time></trkpt>
<trkpt lat="44.43433" lon="2.52686"><ele></ele><time>2020-7-30T3:28:53Z</time></trkpt>
<trkpt lat="44.43435" lon="2.52705"><ele></ele><time>2020-7-30T3:28:56Z</time></trkpt>
<trkpt lat="44.43464" lon="2.52822"><ele></ele><time>2020-7-30T3:28:59Z</time></trkpt>
<trkpt lat="44.43471" lon="2.52877"><ele></ele><time>2020-7-30T3:29:2Z</time></trkpt>
<trkpt lat="44.43472" lon="2.52894"><ele></ele><time>2020-7-30T3:29:5Z</time></trkpt>
<trkpt lat="44.4347" lon="2.52898"><ele></ele><time>2020-7-30T3:29:8Z</time></trkpt>
<trkpt lat="44.43384" lon="2.52962"><ele></ele><time>2020-7-30T3:29:11Z</time></trkpt>
<trkpt lat="44.43356" lon="2.52973"><ele></ele><time>2020-7-30T3:29:14Z</time></trkpt>
<trkpt lat="44.43198" lon="2.52998"><ele></ele><time>2020-7-30T3:29:17Z</time></trkpt>
<trkpt lat="44.43117" lon="2.53005"><ele></ele><time>2020-7-30T3:29:20Z</time></trkpt>
<trkpt lat="44.42973" lon="2.53037"><ele></ele><time>2020-7-30T3:29:23Z</time></trkpt>
<trkpt lat="44.4294" lon="2.53045"><ele></ele><time>2020-7-30T3:29:26Z</time></trkpt>
<trkpt lat="44.42917" lon="2.53054"><ele></ele><time>2020-7-30T3:29:29Z</time></trkpt>
<trkpt lat="44.42855" lon="2.53084"><ele></ele><time>2020-7-30T3:29:32Z</time></trkpt>
<trkpt lat="44.42832" lon="2.53098"><ele></ele><time>2020-7-30T3:29:35Z</time></trkpt>
<trkpt lat="44.428" lon="2.53119"><ele></ele><time>2020-7-30T3:29:38Z</time></trkpt>
<trkpt lat="44.42727" lon="2.53179"><ele></ele><time>2020-7-30T3:29:41Z</time></trkpt>
<trkpt lat="44.42691" lon="2.53219"><ele></ele><time>2020-7-30T3:29:44Z</time></trkpt>
<trkpt lat="44.42637" lon="2.53298"><ele></ele><time>2020-7-30T3:29:47Z</time></trkpt>
<trkpt lat="44.42582" lon="2.53405"><ele></ele><time>2020-7-30T3:29:50Z</time></trkpt>
<trkpt lat="44.42546" lon="2.53465"><ele></ele><time>2020-7-30T3:29:53Z</time></trkpt>
<trkpt lat="44.42517" lon="2.53503"><ele></ele><time>2020-7-30T3:29:56Z</time></trkpt>
<trkpt lat="44.42495" lon="2.53519"><ele></ele><time>2020-7-30T3:29:59Z</time></trkpt>
<trkpt lat="44.42464" lon="2.53526"><ele></ele><time>2020-7-30T3:30:2Z</time></trkpt>
<trkpt lat="44.42437" lon="2.53527"><ele></ele><time>2020-7-30T3:30:5Z</time></trkpt>
<trkpt lat="44.42409" lon="2.53544"><ele></ele><time>2020-7-30T3:30:8Z</time></trkpt>
<trkpt lat="44.42388" lon="2.53547"><ele></ele><time>2020-7-30T3:30:11Z</time></trkpt>
<trkpt lat="44.42375" lon="2.53556"><ele></ele><time>2020-7-30T3:30:14Z</time></trkpt>
<trkpt lat="44.42352" lon="2.53587"><ele></ele><time>2020-7-30T3:30:17Z</time></trkpt>
<trkpt lat="44.42339" lon="2.53634"><ele></ele><time>2020-7-30T3:30:20Z</time></trkpt>
<trkpt lat="44.42334" lon="2.53681"><ele></ele><time>2020-7-30T3:30:23Z</time></trkpt>
<trkpt lat="44.42316" lon="2.53745"><ele></ele><time>2020-7-30T3:30:26Z</time></trkpt>
<trkpt lat="44.42284" lon="2.53787"><ele></ele><time>2020-7-30T3:30:29Z</time></trkpt>
<trkpt lat="44.4228" lon="2.53817"><ele></ele><time>2020-7-30T3:30:32Z</time></trkpt>
<trkpt lat="44.42245" lon="2.53937"><ele></ele><time>2020-7-30T3:30:35Z</time></trkpt>
<trkpt lat="44.42243" lon="2.53953"><ele></ele><time>2020-7-30T3:30:38Z</time></trkpt>
<trkpt lat="44.42246" lon="2.53963"><ele></ele><time>2020-7-30T3:30:41Z</time></trkpt>
<trkpt lat="44.42247" lon="2.53991"><ele></ele><time>2020-7-30T3:30:44Z</time></trkpt>
<trkpt lat="44.42237" lon="2.5401"><ele></ele><time>2020-7-30T3:30:47Z</time></trkpt>
<trkpt lat="44.42239" lon="2.54056"><ele></ele><time>2020-7-30T3:30:50Z</time></trkpt>
<trkpt lat="44.4223" lon="2.54121"><ele></ele><time>2020-7-30T3:30:53Z</time></trkpt>
<trkpt lat="44.4222" lon="2.54149"><ele></ele><time>2020-7-30T3:30:56Z</time></trkpt>
<trkpt lat="44.4222" lon="2.54155"><ele></ele><time>2020-7-30T3:30:59Z</time></trkpt>
<trkpt lat="44.42216" lon="2.54162"><ele></ele><time>2020-7-30T3:31:2Z</time></trkpt>
<trkpt lat="44.42211" lon="2.54185"><ele></ele><time>2020-7-30T3:31:5Z</time></trkpt>
<trkpt lat="44.42201" lon="2.54208"><ele></ele><time>2020-7-30T3:31:8Z</time></trkpt>
<trkpt lat="44.42196" lon="2.54235"><ele></ele><time>2020-7-30T3:31:11Z</time></trkpt>
<trkpt lat="44.4219" lon="2.5425"><ele></ele><time>2020-7-30T3:31:14Z</time></trkpt>
<trkpt lat="44.42196" lon="2.54333"><ele></ele><time>2020-7-30T3:31:17Z</time></trkpt>
<trkpt lat="44.42193" lon="2.54336"><ele></ele><time>2020-7-30T3:31:20Z</time></trkpt>
<trkpt lat="44.42184" lon="2.54388"><ele></ele><time>2020-7-30T3:31:23Z</time></trkpt>
<trkpt lat="44.42179" lon="2.54434"><ele></ele><time>2020-7-30T3:31:26Z</time></trkpt>
<trkpt lat="44.42149" lon="2.54632"><ele></ele><time>2020-7-30T3:31:29Z</time></trkpt>
<trkpt lat="44.42134" lon="2.54672"><ele></ele><time>2020-7-30T3:31:32Z</time></trkpt>
<trkpt lat="44.42115" lon="2.54734"><ele></ele><time>2020-7-30T3:31:35Z</time></trkpt>
<trkpt lat="44.42108" lon="2.54796"><ele></ele><time>2020-7-30T3:31:38Z</time></trkpt>
<trkpt lat="44.42095" lon="2.54844"><ele></ele><time>2020-7-30T3:31:41Z</time></trkpt>
<trkpt lat="44.42095" lon="2.54866"><ele></ele><time>2020-7-30T3:31:44Z</time></trkpt>
<trkpt lat="44.42075" lon="2.55012"><ele></ele><time>2020-7-30T3:31:47Z</time></trkpt>
<trkpt lat="44.42058" lon="2.5508"><ele></ele><time>2020-7-30T3:31:50Z</time></trkpt>
<trkpt lat="44.42053" lon="2.55128"><ele></ele><time>2020-7-30T3:31:53Z</time></trkpt>
<trkpt lat="44.42048" lon="2.55147"><ele></ele><time>2020-7-30T3:31:56Z</time></trkpt>
<trkpt lat="44.4205" lon="2.55155"><ele></ele><time>2020-7-30T3:31:59Z</time></trkpt>
<trkpt lat="44.42044" lon="2.55185"><ele></ele><time>2020-7-30T3:32:2Z</time></trkpt>
<trkpt lat="44.42036" lon="2.55209"><ele></ele><time>2020-7-30T3:32:5Z</time></trkpt>
<trkpt lat="44.4202" lon="2.55281"><ele></ele><time>2020-7-30T3:32:8Z</time></trkpt>
<trkpt lat="44.42015" lon="2.55331"><ele></ele><time>2020-7-30T3:32:11Z</time></trkpt>
<trkpt lat="44.42001" lon="2.55412"><ele></ele><time>2020-7-30T3:32:14Z</time></trkpt>
<trkpt lat="44.41999" lon="2.55435"><ele></ele><time>2020-7-30T3:32:17Z</time></trkpt>
<trkpt lat="44.42003" lon="2.55453"><ele></ele><time>2020-7-30T3:32:20Z</time></trkpt>
<trkpt lat="44.42025" lon="2.55466"><ele></ele><time>2020-7-30T3:32:23Z</time></trkpt>
<trkpt lat="44.42032" lon="2.55494"><ele></ele><time>2020-7-30T3:32:26Z</time></trkpt>
<trkpt lat="44.42039" lon="2.55511"><ele></ele><time>2020-7-30T3:32:29Z</time></trkpt>
<trkpt lat="44.4208" lon="2.55538"><ele></ele><time>2020-7-30T3:32:32Z</time></trkpt>
<trkpt lat="44.42088" lon="2.55546"><ele></ele><time>2020-7-30T3:32:35Z</time></trkpt>
<trkpt lat="44.42103" lon="2.55565"><ele></ele><time>2020-7-30T3:32:38Z</time></trkpt>
<trkpt lat="44.4212" lon="2.55598"><ele></ele><time>2020-7-30T3:32:41Z</time></trkpt>
<trkpt lat="44.42122" lon="2.55607"><ele></ele><time>2020-7-30T3:32:44Z</time></trkpt>
<trkpt lat="44.4212" lon="2.55657"><ele></ele><time>2020-7-30T3:32:47Z</time></trkpt>
<trkpt lat="44.42122" lon="2.55685"><ele></ele><time>2020-7-30T3:32:50Z</time></trkpt>
<trkpt lat="44.42128" lon="2.55712"><ele></ele><time>2020-7-30T3:32:53Z</time></trkpt>
<trkpt lat="44.42149" lon="2.5578"><ele></ele><time>2020-7-30T3:32:56Z</time></trkpt>
<trkpt lat="44.42153" lon="2.55807"><ele></ele><time>2020-7-30T3:32:59Z</time></trkpt>
<trkpt lat="44.42152" lon="2.55825"><ele></ele><time>2020-7-30T3:33:2Z</time></trkpt>
<trkpt lat="44.42143" lon="2.55845"><ele></ele><time>2020-7-30T3:33:5Z</time></trkpt>
<trkpt lat="44.42134" lon="2.55877"><ele></ele><time>2020-7-30T3:33:8Z</time></trkpt>
<trkpt lat="44.42129" lon="2.55968"><ele></ele><time>2020-7-30T3:33:11Z</time></trkpt>
<trkpt lat="44.42148" lon="2.56018"><ele></ele><time>2020-7-30T3:33:14Z</time></trkpt>
<trkpt lat="44.4216" lon="2.56039"><ele></ele><time>2020-7-30T3:33:17Z</time></trkpt>
<trkpt lat="44.42198" lon="2.56093"><ele></ele><time>2020-7-30T3:33:20Z</time></trkpt>
<trkpt lat="44.42206" lon="2.56124"><ele></ele><time>2020-7-30T3:33:23Z</time></trkpt>
<trkpt lat="44.42207" lon="2.56159"><ele></ele><time>2020-7-30T3:33:26Z</time></trkpt>
<trkpt lat="44.42202" lon="2.56246"><ele></ele><time>2020-7-30T3:33:29Z</time></trkpt>
<trkpt lat="44.42208" lon="2.56319"><ele></ele><time>2020-7-30T3:33:32Z</time></trkpt>
<trkpt lat="44.422" lon="2.56345"><ele></ele><time>2020-7-30T3:33:35Z</time></trkpt>
<trkpt lat="44.42186" lon="2.56374"><ele></ele><time>2020-7-30T3:33:38Z</time></trkpt>
<trkpt lat="44.42169" lon="2.56402"><ele></ele><time>2020-7-30T3:33:41Z</time></trkpt>
<trkpt lat="44.42164" lon="2.5642"><ele></ele><time>2020-7-30T3:33:44Z</time></trkpt>
<trkpt lat="44.42156" lon="2.56466"><ele></ele><time>2020-7-30T3:33:47Z</time></trkpt>
<trkpt lat="44.42154" lon="2.56493"><ele></ele><time>2020-7-30T3:33:50Z</time></trkpt>
<trkpt lat="44.42138" lon="2.56545"><ele></ele><time>2020-7-30T3:33:53Z</time></trkpt>
<trkpt lat="44.42135" lon="2.56563"><ele></ele><time>2020-7-30T3:33:56Z</time></trkpt>
<trkpt lat="44.4214" lon="2.56579"><ele></ele><time>2020-7-30T3:33:59Z</time></trkpt>
<trkpt lat="44.42155" lon="2.56606"><ele></ele><time>2020-7-30T3:34:2Z</time></trkpt>
<trkpt lat="44.42172" lon="2.56618"><ele></ele><time>2020-7-30T3:34:5Z</time></trkpt>
<trkpt lat="44.42194" lon="2.56626"><ele></ele><time>2020-7-30T3:34:8Z</time></trkpt>
<trkpt lat="44.42215" lon="2.56637"><ele></ele><time>2020-7-30T3:34:11Z</time></trkpt>
<trkpt lat="44.42232" lon="2.56651"><ele></ele><time>2020-7-30T3:34:14Z</time></trkpt>
<trkpt lat="44.42261" lon="2.56684"><ele></ele><time>2020-7-30T3:34:17Z</time></trkpt>
<trkpt lat="44.42284" lon="2.56693"><ele></ele><time>2020-7-30T3:34:20Z</time></trkpt>
<trkpt lat="44.42402" lon="2.56721"><ele></ele><time>2020-7-30T3:34:23Z</time></trkpt>
<trkpt lat="44.42419" lon="2.56728"><ele></ele><time>2020-7-30T3:34:26Z</time></trkpt>
<trkpt lat="44.42469" lon="2.5676"><ele></ele><time>2020-7-30T3:34:29Z</time></trkpt>
<trkpt lat="44.42508" lon="2.56809"><ele></ele><time>2020-7-30T3:34:32Z</time></trkpt>
<trkpt lat="44.42538" lon="2.56857"><ele></ele><time>2020-7-30T3:34:35Z</time></trkpt>
<trkpt lat="44.42549" lon="2.56883"><ele></ele><time>2020-7-30T3:34:38Z</time></trkpt>
<trkpt lat="44.42545" lon="2.56905"><ele></ele><time>2020-7-30T3:34:41Z</time></trkpt>
<trkpt lat="44.42497" lon="2.57061"><ele></ele><time>2020-7-30T3:34:44Z</time></trkpt>
<trkpt lat="44.42467" lon="2.57145"><ele></ele><time>2020-7-30T3:34:47Z</time></trkpt>
<trkpt lat="44.42451" lon="2.57207"><ele></ele><time>2020-7-30T3:34:50Z</time></trkpt>
<trkpt lat="44.42443" lon="2.57263"><ele></ele><time>2020-7-30T3:34:53Z</time></trkpt>
<trkpt lat="44.42443" lon="2.57298"><ele></ele><time>2020-7-30T3:34:56Z</time></trkpt>
<trkpt lat="44.42437" lon="2.57347"><ele></ele><time>2020-7-30T3:34:59Z</time></trkpt>
<trkpt lat="44.42402" lon="2.5757"><ele></ele><time>2020-7-30T3:35:2Z</time></trkpt>
<trkpt lat="44.42401" lon="2.57611"><ele></ele><time>2020-7-30T3:35:5Z</time></trkpt>
<trkpt lat="44.42389" lon="2.5771"><ele></ele><time>2020-7-30T3:35:8Z</time></trkpt>
<trkpt lat="44.4238" lon="2.5774"><ele></ele><time>2020-7-30T3:35:11Z</time></trkpt>
<trkpt lat="44.4236" lon="2.57777"><ele></ele><time>2020-7-30T3:35:14Z</time></trkpt>
<trkpt lat="44.42336" lon="2.57809"><ele></ele><time>2020-7-30T3:35:17Z</time></trkpt>
<trkpt lat="44.42316" lon="2.57813"><ele></ele><time>2020-7-30T3:35:20Z</time></trkpt>
<trkpt lat="44.42263" lon="2.57805"><ele></ele><time>2020-7-30T3:35:23Z</time></trkpt>
<trkpt lat="44.42254" lon="2.57809"><ele></ele><time>2020-7-30T3:35:26Z</time></trkpt>
<trkpt lat="44.42248" lon="2.57824"><ele></ele><time>2020-7-30T3:35:29Z</time></trkpt>
<trkpt lat="44.42252" lon="2.57838"><ele></ele><time>2020-7-30T3:35:32Z</time></trkpt>
<trkpt lat="44.42265" lon="2.57861"><ele></ele><time>2020-7-30T3:35:35Z</time></trkpt>
<trkpt lat="44.42273" lon="2.57897"><ele></ele><time>2020-7-30T3:35:38Z</time></trkpt>
<trkpt lat="44.42277" lon="2.57944"><ele></ele><time>2020-7-30T3:35:41Z</time></trkpt>
<trkpt lat="44.42282" lon="2.58082"><ele></ele><time>2020-7-30T3:35:44Z</time></trkpt>
<trkpt lat="44.42293" lon="2.58151"><ele></ele><time>2020-7-30T3:35:47Z</time></trkpt>
<trkpt lat="44.4231" lon="2.58215"><ele></ele><time>2020-7-30T3:35:50Z</time></trkpt>
<trkpt lat="44.42339" lon="2.58297"><ele></ele><time>2020-7-30T3:35:53Z</time></trkpt>
<trkpt lat="44.42358" lon="2.58385"><ele></ele><time>2020-7-30T3:35:56Z</time></trkpt>
<trkpt lat="44.42364" lon="2.58433"><ele></ele><time>2020-7-30T3:35:59Z</time></trkpt>
<trkpt lat="44.42372" lon="2.58462"><ele></ele><time>2020-7-30T3:36:2Z</time></trkpt>
<trkpt lat="44.42409" lon="2.58554"><ele></ele><time>2020-7-30T3:36:5Z</time></trkpt>
<trkpt lat="44.42412" lon="2.58578"><ele></ele><time>2020-7-30T3:36:8Z</time></trkpt>
<trkpt lat="44.4241" lon="2.58656"><ele></ele><time>2020-7-30T3:36:11Z</time></trkpt>
<trkpt lat="44.42403" lon="2.58763"><ele></ele><time>2020-7-30T3:36:14Z</time></trkpt>
<trkpt lat="44.42405" lon="2.58822"><ele></ele><time>2020-7-30T3:36:17Z</time></trkpt>
<trkpt lat="44.42392" lon="2.58888"><ele></ele><time>2020-7-30T3:36:20Z</time></trkpt>
<trkpt lat="44.42384" lon="2.59029"><ele></ele><time>2020-7-30T3:36:23Z</time></trkpt>
<trkpt lat="44.42386" lon="2.59047"><ele></ele><time>2020-7-30T3:36:26Z</time></trkpt>
<trkpt lat="44.42416" lon="2.59177"><ele></ele><time>2020-7-30T3:36:29Z</time></trkpt>
<trkpt lat="44.42433" lon="2.59277"><ele></ele><time>2020-7-30T3:36:32Z</time></trkpt>
<trkpt lat="44.42433" lon="2.59289"><ele></ele><time>2020-7-30T3:36:35Z</time></trkpt>
<trkpt lat="44.42422" lon="2.59399"><ele></ele><time>2020-7-30T3:36:38Z</time></trkpt>
<trkpt lat="44.42386" lon="2.59637"><ele></ele><time>2020-7-30T3:36:41Z</time></trkpt>
<trkpt lat="44.42381" lon="2.59653"><ele></ele><time>2020-7-30T3:36:44Z</time></trkpt>
<trkpt lat="44.42378" lon="2.59654"><ele></ele><time>2020-7-30T3:36:47Z</time></trkpt>
<trkpt lat="44.42336" lon="2.59658"><ele></ele><time>2020-7-30T3:36:50Z</time></trkpt>
<trkpt lat="44.42273" lon="2.59669"><ele></ele><time>2020-7-30T3:36:53Z</time></trkpt>
<trkpt lat="44.42257" lon="2.59674"><ele></ele><time>2020-7-30T3:36:56Z</time></trkpt>
<trkpt lat="44.42216" lon="2.59703"><ele></ele><time>2020-7-30T3:36:59Z</time></trkpt>
<trkpt lat="44.42157" lon="2.59751"><ele></ele><time>2020-7-30T3:37:2Z</time></trkpt>
<trkpt lat="44.4213" lon="2.59767"><ele></ele><time>2020-7-30T3:37:5Z</time></trkpt>
<trkpt lat="44.42097" lon="2.5978"><ele></ele><time>2020-7-30T3:37:8Z</time></trkpt>
<trkpt lat="44.42065" lon="2.59782"><ele></ele><time>2020-7-30T3:37:11Z</time></trkpt>
<trkpt lat="44.42041" lon="2.59794"><ele></ele><time>2020-7-30T3:37:14Z</time></trkpt>
<trkpt lat="44.42031" lon="2.59803"><ele></ele><time>2020-7-30T3:37:17Z</time></trkpt>
<trkpt lat="44.42011" lon="2.59832"><ele></ele><time>2020-7-30T3:37:20Z</time></trkpt>
<trkpt lat="44.41986" lon="2.59849"><ele></ele><time>2020-7-30T3:37:23Z</time></trkpt>
<trkpt lat="44.41963" lon="2.59872"><ele></ele><time>2020-7-30T3:37:26Z</time></trkpt>
<trkpt lat="44.41939" lon="2.5989"><ele></ele><time>2020-7-30T3:37:29Z</time></trkpt>
<trkpt lat="44.4187" lon="2.59912"><ele></ele><time>2020-7-30T3:37:32Z</time></trkpt>
<trkpt lat="44.41822" lon="2.59951"><ele></ele><time>2020-7-30T3:37:35Z</time></trkpt>
<trkpt lat="44.41783" lon="2.59977"><ele></ele><time>2020-7-30T3:37:38Z</time></trkpt>
<trkpt lat="44.41756" lon="2.59992"><ele></ele><time>2020-7-30T3:37:41Z</time></trkpt>
<trkpt lat="44.41721" lon="2.60007"><ele></ele><time>2020-7-30T3:37:44Z</time></trkpt>
<trkpt lat="44.41672" lon="2.60024"><ele></ele><time>2020-7-30T3:37:47Z</time></trkpt>
<trkpt lat="44.41563" lon="2.60049"><ele></ele><time>2020-7-30T3:37:50Z</time></trkpt>
<trkpt lat="44.41441" lon="2.60082"><ele></ele><time>2020-7-30T3:37:53Z</time></trkpt>
<trkpt lat="44.41426" lon="2.60083"><ele></ele><time>2020-7-30T3:37:56Z</time></trkpt>
<trkpt lat="44.41398" lon="2.60073"><ele></ele><time>2020-7-30T3:37:59Z</time></trkpt>
<trkpt lat="44.41381" lon="2.60062"><ele></ele><time>2020-7-30T3:38:2Z</time></trkpt>
<trkpt lat="44.41345" lon="2.60051"><ele></ele><time>2020-7-30T3:38:5Z</time></trkpt>
<trkpt lat="44.41326" lon="2.60039"><ele></ele><time>2020-7-30T3:38:8Z</time></trkpt>
<trkpt lat="44.4126" lon="2.59988"><ele></ele><time>2020-7-30T3:38:11Z</time></trkpt>
<trkpt lat="44.41234" lon="2.59962"><ele></ele><time>2020-7-30T3:38:14Z</time></trkpt>
<trkpt lat="44.41209" lon="2.59928"><ele></ele><time>2020-7-30T3:38:17Z</time></trkpt>
<trkpt lat="44.41196" lon="2.59925"><ele></ele><time>2020-7-30T3:38:20Z</time></trkpt>
<trkpt lat="44.41124" lon="2.59946"><ele></ele><time>2020-7-30T3:38:23Z</time></trkpt>
<trkpt lat="44.41099" lon="2.59966"><ele></ele><time>2020-7-30T3:38:26Z</time></trkpt>
<trkpt lat="44.41096" lon="2.59981"><ele></ele><time>2020-7-30T3:38:29Z</time></trkpt>
<trkpt lat="44.41103" lon="2.59998"><ele></ele><time>2020-7-30T3:38:32Z</time></trkpt>
<trkpt lat="44.41103" lon="2.60017"><ele></ele><time>2020-7-30T3:38:35Z</time></trkpt>
<trkpt lat="44.41094" lon="2.60042"><ele></ele><time>2020-7-30T3:38:38Z</time></trkpt>
<trkpt lat="44.41079" lon="2.60073"><ele></ele><time>2020-7-30T3:38:41Z</time></trkpt>
<trkpt lat="44.41064" lon="2.60088"><ele></ele><time>2020-7-30T3:38:44Z</time></trkpt>
<trkpt lat="44.41063" lon="2.60092"><ele></ele><time>2020-7-30T3:38:47Z</time></trkpt>
<trkpt lat="44.41058" lon="2.60094"><ele></ele><time>2020-7-30T3:38:50Z</time></trkpt>
<trkpt lat="44.41046" lon="2.60092"><ele></ele><time>2020-7-30T3:38:53Z</time></trkpt>
<trkpt lat="44.41042" lon="2.60099"><ele></ele><time>2020-7-30T3:38:56Z</time></trkpt>
<trkpt lat="44.41043" lon="2.60121"><ele></ele><time>2020-7-30T3:38:59Z</time></trkpt>
<trkpt lat="44.4104" lon="2.60145"><ele></ele><time>2020-7-30T3:39:2Z</time></trkpt>
<trkpt lat="44.41043" lon="2.6016"><ele></ele><time>2020-7-30T3:39:5Z</time></trkpt>
<trkpt lat="44.41053" lon="2.60172"><ele></ele><time>2020-7-30T3:39:8Z</time></trkpt>
<trkpt lat="44.41075" lon="2.6022"><ele></ele><time>2020-7-30T3:39:11Z</time></trkpt>
<trkpt lat="44.41075" lon="2.60242"><ele></ele><time>2020-7-30T3:39:14Z</time></trkpt>
<trkpt lat="44.41071" lon="2.60257"><ele></ele><time>2020-7-30T3:39:17Z</time></trkpt>
<trkpt lat="44.41079" lon="2.60274"><ele></ele><time>2020-7-30T3:39:20Z</time></trkpt>
<trkpt lat="44.41067" lon="2.60322"><ele></ele><time>2020-7-30T3:39:23Z</time></trkpt>
<trkpt lat="44.41072" lon="2.60359"><ele></ele><time>2020-7-30T3:39:26Z</time></trkpt>
<trkpt lat="44.41068" lon="2.60388"><ele></ele><time>2020-7-30T3:39:29Z</time></trkpt>
<trkpt lat="44.41056" lon="2.60408"><ele></ele><time>2020-7-30T3:39:32Z</time></trkpt>
<trkpt lat="44.41059" lon="2.60422"><ele></ele><time>2020-7-30T3:39:35Z</time></trkpt>
</trkseg></trk></gpx>